createdAt,value
2018-08-30T00:02:00.080Z,-80
2018-08-30T00:04:28.227Z,-79
2018-08-30T00:06:57.295Z,-77
2018-08-30T00:09:26.376Z,-78
2018-08-30T00:11:54.650Z,-79
2018-08-30T00:14:23.243Z,-77
2018-08-30T00:16:51.467Z,-76
2018-08-30T00:19:19.693Z,-79
2018-08-30T00:21:48.078Z,-80
2018-08-30T00:24:16.336Z,-79
2018-08-30T00:26:44.521Z,-81
2018-08-30T00:29:12.702Z,-77
2018-08-30T00:31:40.868Z,-80
2018-08-30T00:34:09.148Z,-77
2018-08-30T00:36:37.369Z,-79
2018-08-30T00:39:08.655Z,-80
2018-08-30T00:41:37.171Z,-79
2018-08-30T00:44:05.363Z,-78
2018-08-30T00:46:33.667Z,-78
2018-08-30T00:49:01.857Z,-79
2018-08-30T00:51:30.474Z,-77
2018-08-30T00:53:58.639Z,-79
2018-08-30T00:56:26.926Z,-79
2018-08-30T00:58:55.090Z,-77
2018-08-30T01:01:23.404Z,-79
2018-08-30T01:03:51.582Z,-79
2018-08-30T01:06:19.854Z,-80
2018-08-30T01:08:48.954Z,-76
2018-08-30T01:11:17.272Z,-76
2018-08-30T01:13:46.132Z,-78
2018-08-30T01:16:14.418Z,-77
2018-08-30T01:18:42.561Z,-78
2018-08-30T01:21:11.388Z,-79
2018-08-30T01:23:39.948Z,-78
2018-08-30T01:26:08.148Z,-79
2018-08-30T01:28:36.440Z,-81
2018-08-30T01:31:05.050Z,-78
2018-08-30T01:33:33.531Z,-78
2018-08-30T01:36:01.894Z,-78
2018-08-30T01:38:30.188Z,-79
2018-08-30T01:40:58.388Z,-79
2018-08-30T01:43:26.663Z,-78
2018-08-30T01:45:54.853Z,-77
2018-08-30T01:48:23.210Z,-78
2018-08-30T01:50:51.420Z,-77
2018-08-30T01:53:20.273Z,-80
2018-08-30T01:55:49.049Z,-80
2018-08-30T01:58:17.973Z,-77
2018-08-30T02:00:46.141Z,-77
2018-08-30T02:03:14.404Z,-78
2018-08-30T02:05:42.763Z,-77
2018-08-30T02:08:11.871Z,-77
2018-08-30T02:10:40.047Z,-79
2018-08-30T02:13:08.370Z,-79
2018-08-30T02:15:36.593Z,-78
2018-08-30T02:18:04.919Z,-77
2018-08-30T02:20:33.114Z,-80
2018-08-30T02:23:01.439Z,-79
2018-08-30T02:25:29.563Z,-78
2018-08-30T02:27:58.771Z,-81
2018-08-30T02:30:26.892Z,-78
2018-08-30T02:32:55.209Z,-77
2018-08-30T02:35:23.374Z,-79
2018-08-30T02:37:52.337Z,-79
2018-08-30T02:40:20.510Z,-77
2018-08-30T02:42:49.543Z,-83
2018-08-30T02:45:17.672Z,-77
2018-08-30T02:47:46.237Z,-80
2018-08-30T02:50:14.781Z,-78
2018-08-30T02:52:43.159Z,-80
2018-08-30T02:55:12.194Z,-80
2018-08-30T02:57:40.602Z,-79
2018-08-30T03:00:08.785Z,-77
2018-08-30T03:02:36.986Z,-79
2018-08-30T03:05:05.255Z,-79
2018-08-30T03:07:33.563Z,-79
2018-08-30T03:10:02.910Z,-78
2018-08-30T03:12:31.870Z,-80
2018-08-30T03:15:10.926Z,-80
2018-08-30T03:17:39.264Z,-81
2018-08-30T03:20:09.731Z,-79
2018-08-30T03:22:39.371Z,-82
2018-08-30T03:25:07.734Z,-84
2018-08-30T03:27:36.076Z,-79
2018-08-30T03:30:05.594Z,-81
2018-08-30T03:32:33.899Z,-83
2018-08-30T03:35:02.146Z,-83
2018-08-30T03:37:30.451Z,-79
2018-08-30T03:39:58.542Z,-79
2018-08-30T03:42:26.726Z,-79
2018-08-30T03:44:54.918Z,-79
2018-08-30T03:47:23.146Z,-77
2018-08-30T03:49:51.260Z,-79
2018-08-30T03:52:19.390Z,-81
2018-08-30T03:54:47.509Z,-80
2018-08-30T03:57:15.580Z,-79
2018-08-30T03:59:43.880Z,-80
2018-08-30T04:02:12.089Z,-79
2018-08-30T04:04:40.309Z,-78
2018-08-30T04:07:08.573Z,-79
2018-08-30T04:09:36.834Z,-76
2018-08-30T04:12:05.759Z,-79
2018-08-30T04:14:33.949Z,-79
2018-08-30T04:17:02.462Z,-79
2018-08-30T04:19:30.800Z,-78
2018-08-30T04:21:59.077Z,-78
2018-08-30T04:24:27.253Z,-79
2018-08-30T04:26:55.598Z,-79
2018-08-30T04:29:23.705Z,-79
2018-08-30T04:31:51.925Z,-79
2018-08-30T04:34:20.166Z,-79
2018-08-30T04:36:48.431Z,-79
2018-08-30T04:39:17.144Z,-78
2018-08-30T04:41:45.795Z,-79
2018-08-30T04:44:14.016Z,-78
2018-08-30T04:46:42.237Z,-80
2018-08-30T04:49:10.350Z,-80
2018-08-30T04:51:38.549Z,-80
2018-08-30T04:54:06.737Z,-79
2018-08-30T04:56:34.983Z,-79
2018-08-30T04:59:03.233Z,-80
2018-08-30T05:01:31.417Z,-78
2018-08-30T05:03:59.663Z,-77
2018-08-30T05:06:27.863Z,-78
2018-08-30T05:08:56.421Z,-77
2018-08-30T05:11:24.646Z,-79
2018-08-30T05:13:52.777Z,-77
2018-08-30T05:16:21.002Z,-77
2018-08-30T05:18:49.131Z,-80
2018-08-30T05:21:17.327Z,-77
2018-08-30T05:23:45.556Z,-77
2018-08-30T05:26:13.844Z,-83
2018-08-30T05:28:42.098Z,-79
2018-08-30T05:31:10.402Z,-80
2018-08-30T05:33:38.569Z,-78
2018-08-30T05:36:06.777Z,-80
2018-08-30T05:38:35.001Z,-79
2018-08-30T05:41:03.271Z,-79
2018-08-30T05:43:31.385Z,-80
2018-08-30T05:45:59.749Z,-80
2018-08-30T05:48:28.025Z,-81
2018-08-30T05:50:56.186Z,-78
2018-08-30T05:53:24.270Z,-77
2018-08-30T05:55:52.629Z,-80
2018-08-30T05:58:21.530Z,-78
2018-08-30T06:00:49.659Z,-79
2018-08-30T06:03:17.899Z,-80
2018-08-30T06:05:46.045Z,-78
2018-08-30T06:08:14.304Z,-80
2018-08-30T06:10:42.773Z,-80
2018-08-30T06:13:10.884Z,-80
2018-08-30T06:15:39.117Z,-86
2018-08-30T06:18:08.693Z,-85
2018-08-30T06:20:36.891Z,-85
2018-08-30T06:23:05.091Z,-86
2018-08-30T06:25:33.373Z,-84
2018-08-30T06:28:01.549Z,-83
2018-08-30T06:30:29.863Z,-84
2018-08-30T06:32:58.181Z,-85
2018-08-30T06:35:26.317Z,-86
2018-08-30T06:37:54.503Z,-85
2018-08-30T06:40:22.843Z,-83
2018-08-30T06:42:51.291Z,-84
2018-08-30T06:45:19.562Z,-83
2018-08-30T06:47:47.891Z,-85
2018-08-30T06:50:16.343Z,-88
2018-08-30T06:52:44.711Z,-87
2018-08-30T06:55:12.925Z,-85
2018-08-30T06:57:41.210Z,-85
2018-08-30T07:00:09.472Z,-85
2018-08-30T07:02:37.660Z,-85
2018-08-30T07:05:06.407Z,-84
2018-08-30T07:07:34.526Z,-86
2018-08-30T07:10:06.676Z,-87
2018-08-30T07:12:35.004Z,-87
2018-08-30T07:15:03.543Z,-85
2018-08-30T07:17:31.888Z,-89
2018-08-30T07:20:00.043Z,-89
2018-08-30T07:22:28.454Z,-85
2018-08-30T07:24:56.922Z,-87
2018-08-30T07:27:25.516Z,-84
2018-08-30T07:29:53.864Z,-85
2018-08-30T07:32:22.005Z,-88
2018-08-30T07:34:50.201Z,-84
2018-08-30T07:37:19.220Z,-85
2018-08-30T07:39:47.424Z,-84
2018-08-30T07:42:15.581Z,-83
2018-08-30T07:44:43.782Z,-85
2018-08-30T07:47:12.096Z,-87
2018-08-30T07:49:40.303Z,-85
2018-08-30T07:52:09.099Z,-86
2018-08-30T07:54:37.463Z,-85
2018-08-30T07:57:06.167Z,-88
2018-08-30T07:59:34.807Z,-87
2018-08-30T08:02:03.109Z,-87
2018-08-30T08:04:31.361Z,-85
2018-08-30T08:07:02.559Z,-86
2018-08-30T08:09:31.180Z,-85
2018-08-30T08:11:59.685Z,-87
2018-08-30T08:14:28.088Z,-85
2018-08-30T08:16:56.432Z,-86
2018-08-30T08:19:24.679Z,-85
2018-08-30T08:21:52.951Z,-85
2018-08-30T08:24:21.241Z,-85
2018-08-30T08:26:49.586Z,-87
2018-08-30T08:29:17.875Z,-85
2018-08-30T08:31:46.101Z,-84
2018-08-30T08:34:14.431Z,-85
2018-08-30T08:36:42.699Z,-84
2018-08-30T08:39:11.161Z,-85
2018-08-30T08:41:39.452Z,-86
2018-08-30T08:44:07.761Z,-85
2018-08-30T08:46:35.976Z,-86
2018-08-30T08:49:04.320Z,-85
2018-08-30T08:51:32.606Z,-85
2018-08-30T08:54:01.324Z,-84
2018-08-30T08:56:29.600Z,-84
2018-08-30T08:58:58.341Z,-82
2018-08-30T09:01:26.577Z,-84
2018-08-30T09:03:54.840Z,-84
2018-08-30T09:06:23.085Z,-83
2018-08-30T09:08:51.281Z,-84
2018-08-30T09:11:19.525Z,-83
2018-08-30T09:13:47.720Z,-84
2018-08-30T09:16:15.964Z,-84
2018-08-30T09:18:44.272Z,-83
2018-08-30T09:21:12.551Z,-83
2018-08-30T09:23:40.771Z,-83
2018-08-30T09:26:09.595Z,-86
2018-08-30T09:28:37.843Z,-85
2018-08-30T09:31:06.356Z,-85
2018-08-30T09:33:35.333Z,-85
2018-08-30T09:36:03.844Z,-85
2018-08-30T09:38:32.130Z,-85
2018-08-30T09:41:00.410Z,-85
2018-08-30T09:43:28.774Z,-85
2018-08-30T09:45:57.225Z,-85
2018-08-30T09:48:26.085Z,-86
2018-08-30T09:50:54.418Z,-85
2018-08-30T09:53:22.704Z,-85
2018-08-30T09:55:50.948Z,-84
2018-08-30T09:58:19.051Z,-88
2018-08-30T10:00:52.884Z,-85
2018-08-30T10:03:21.366Z,-85
2018-08-30T10:05:49.639Z,-86
2018-08-30T10:08:17.854Z,-86
2018-08-30T10:10:46.082Z,-84
2018-08-30T10:13:14.355Z,-86
2018-08-30T10:15:42.643Z,-85
2018-08-30T10:18:10.817Z,-86
2018-08-30T10:20:39.132Z,-86
2018-08-30T10:23:07.741Z,-85
2018-08-30T10:25:36.018Z,-85
2018-08-30T10:28:10.768Z,-84
2018-08-30T10:30:38.992Z,-86
2018-08-30T10:33:07.313Z,-85
2018-08-30T10:35:35.462Z,-86
2018-08-30T10:38:03.685Z,-87
2018-08-30T10:40:31.903Z,-86
2018-08-30T10:43:00.140Z,-85
2018-08-30T10:45:28.449Z,-85
2018-08-30T10:47:56.648Z,-87
2018-08-30T10:50:24.889Z,-86
2018-08-30T10:52:53.228Z,-86
2018-08-30T10:55:21.427Z,-86
2018-08-30T10:57:49.608Z,-83
2018-08-30T11:00:17.911Z,-84
2018-08-30T11:02:46.647Z,-85
2018-08-30T11:05:14.836Z,-86
2018-08-30T11:07:43.052Z,-85
2018-08-30T11:10:11.286Z,-85
2018-08-30T11:12:39.552Z,-84
2018-08-30T11:15:07.906Z,-85
2018-08-30T11:17:36.683Z,-85
2018-08-30T11:20:05.029Z,-85
2018-08-30T11:22:33.295Z,-86
2018-08-30T11:25:01.483Z,-85
2018-08-30T11:27:29.761Z,-86
2018-08-30T11:29:58.027Z,-87
2018-08-30T11:32:26.322Z,-87
2018-08-30T11:34:54.758Z,-87
2018-08-30T11:37:23.896Z,-85
2018-08-30T11:39:52.157Z,-87
2018-08-30T11:42:20.453Z,-85
2018-08-30T11:44:48.654Z,-86
2018-08-30T11:47:16.915Z,-85
2018-08-30T11:49:45.128Z,-84
2018-08-30T11:52:13.445Z,-85
2018-08-30T11:54:41.768Z,-85
2018-08-30T11:57:10.001Z,-85
2018-08-30T11:59:38.359Z,-86
2018-08-30T12:02:06.659Z,-87
2018-08-30T12:04:35.748Z,-86
2018-08-30T12:07:04.257Z,-84
2018-08-30T12:09:32.665Z,-85
2018-08-30T12:12:01.480Z,-86
2018-08-30T12:14:29.699Z,-86
2018-08-30T12:16:57.960Z,-87
2018-08-30T12:19:26.382Z,-86
2018-08-30T12:21:54.760Z,-87
2018-08-30T12:24:22.974Z,-84
2018-08-30T12:26:51.254Z,-85
2018-08-30T12:29:19.571Z,-86
2018-08-30T12:31:47.913Z,-86
2018-08-30T12:34:16.471Z,-84
2018-08-30T12:36:44.707Z,-86
2018-08-30T12:39:13.772Z,-85
2018-08-30T12:41:42.204Z,-85
2018-08-30T12:44:10.507Z,-85
2018-08-30T12:46:38.812Z,-87
2018-08-30T12:49:07.181Z,-85
2018-08-30T12:51:35.660Z,-85
2018-08-30T12:54:04.071Z,-88
2018-08-30T12:56:32.370Z,-85
2018-08-30T12:59:06.269Z,-85
2018-08-30T13:01:34.782Z,-85
2018-08-30T13:04:02.974Z,-86
2018-08-30T13:06:31.244Z,-86
2018-08-30T13:08:59.904Z,-86
2018-08-30T13:11:28.055Z,-87
2018-08-30T13:13:56.355Z,-87
2018-08-30T13:16:24.526Z,-85
2018-08-30T13:18:52.776Z,-87
2018-08-30T13:21:21.213Z,-89
2018-08-30T13:23:49.485Z,-87
2018-08-30T13:26:17.830Z,-86
2018-08-30T13:28:45.887Z,-86
2018-08-30T13:31:14.298Z,-87
2018-08-30T13:33:42.668Z,-85
2018-08-30T13:36:11.389Z,-86
2018-08-30T13:38:40.057Z,-83
2018-08-30T13:41:08.831Z,-87
2018-08-30T13:43:37.703Z,-84
2018-08-30T13:46:05.825Z,-85
2018-08-30T13:48:34.083Z,-87
2018-08-30T13:51:02.308Z,-86
2018-08-30T13:53:31.240Z,-85
2018-08-30T13:55:59.740Z,-85
2018-08-30T13:58:28.170Z,-86
2018-08-30T14:00:56.420Z,-87
2018-08-30T14:03:24.666Z,-85
2018-08-30T14:05:52.869Z,-86
2018-08-30T14:08:21.316Z,-86
2018-08-30T14:10:49.906Z,-85
2018-08-30T14:13:18.098Z,-85
2018-08-30T14:15:46.005Z,-85
2018-08-30T14:18:14.216Z,-87
2018-08-30T14:20:43.315Z,-87
2018-08-30T14:23:11.666Z,-85
2018-08-30T14:25:40.059Z,-87
2018-08-30T14:28:09.351Z,-88
2018-08-30T14:30:39.273Z,-87
2018-08-30T14:33:07.790Z,-89
2018-08-30T14:35:48.755Z,-87
2018-08-30T14:38:18.397Z,-86
2018-08-30T14:40:47.006Z,-85
2018-08-30T14:46:12.553Z,-86
2018-08-30T14:48:40.825Z,-85
2018-08-30T14:51:09.271Z,-86
2018-08-30T14:53:37.921Z,-88
2018-08-30T14:56:06.378Z,-85
2018-08-30T14:58:39.850Z,-89
2018-08-30T15:01:25.667Z,-86
2018-08-30T15:04:23.866Z,-87
2018-08-30T15:07:08.636Z,-85
2018-08-30T15:09:40.742Z,-88
2018-08-30T15:12:10.300Z,-84
2018-08-30T15:14:40.104Z,-83
2018-08-30T15:17:09.676Z,-83
2018-08-30T15:22:16.053Z,-83
2018-08-30T15:24:48.390Z,-82
2018-08-30T15:27:18.493Z,-82
2018-08-30T15:29:48.354Z,-83
2018-08-30T15:32:20.721Z,-83
2018-08-30T15:35:04.236Z,-83
2018-08-30T15:40:20.092Z,-84
2018-08-30T15:42:48.640Z,-84
2018-08-30T15:45:29.913Z,-85
2018-08-30T15:48:03.689Z,-84
2018-08-30T15:50:33.906Z,-84
2018-08-30T15:53:04.746Z,-83
2018-08-30T15:55:34.307Z,-85
2018-08-30T15:58:04.265Z,-86
2018-08-30T16:00:41.550Z,-87
2018-08-30T16:03:15.686Z,-87
2018-08-30T16:05:44.622Z,-86
2018-08-30T16:08:13.352Z,-87
2018-08-30T16:10:41.770Z,-86
2018-08-30T16:13:10.247Z,-85
2018-08-30T16:15:38.937Z,-84
2018-08-30T16:18:08.139Z,-84
2018-08-30T16:20:39.407Z,-85
2018-08-30T16:25:17.092Z,-85
2018-08-30T16:27:46.460Z,-85
2018-08-30T16:30:14.909Z,-89
2018-08-30T16:32:43.533Z,-85
2018-08-30T16:35:12.209Z,-86
2018-08-30T16:37:41.682Z,-86
2018-08-30T16:40:10.277Z,-87
2018-08-30T16:42:38.646Z,-86
2018-08-30T16:45:07.679Z,-86
2018-08-30T16:47:36.446Z,-85
2018-08-30T16:50:04.963Z,-85
2018-08-30T16:52:36.436Z,-86
2018-08-30T16:55:05.221Z,-86
2018-08-30T16:57:33.805Z,-86
2018-08-30T17:00:02.987Z,-83
2018-08-30T17:02:31.985Z,-85
2018-08-30T17:05:00.971Z,-86
2018-08-30T17:07:29.789Z,-87
2018-08-30T17:09:59.147Z,-85
2018-08-30T17:12:28.146Z,-86
2018-08-30T17:14:57.263Z,-87
2018-08-30T17:17:27.309Z,-87
2018-08-30T17:19:56.149Z,-87
2018-08-30T17:22:25.539Z,-86
2018-08-30T17:24:54.907Z,-86
2018-08-30T17:27:24.058Z,-86
2018-08-30T17:29:52.883Z,-87
2018-08-30T17:32:22.162Z,-85
2018-08-30T17:34:50.880Z,-85
2018-08-30T17:37:19.642Z,-84
2018-08-30T17:39:49.712Z,-87
2018-08-30T17:42:18.439Z,-86
2018-08-30T17:44:48.510Z,-85
2018-08-30T17:47:18.053Z,-84
2018-08-30T17:49:48.457Z,-89
2018-08-30T17:52:17.440Z,-84
2018-08-30T17:54:46.421Z,-85
2018-08-30T17:57:16.718Z,-86
2018-08-30T18:03:07.755Z,-85
2018-08-30T18:05:36.719Z,-86
2018-08-30T18:08:05.692Z,-86
2018-08-30T18:10:37.296Z,-85
2018-08-30T18:13:06.460Z,-86
2018-08-30T18:15:35.369Z,-86
2018-08-30T18:18:05.141Z,-87
2018-08-30T18:20:35.029Z,-88
2018-08-30T18:25:44.437Z,-82
2018-08-30T18:28:12.718Z,-81
2018-08-30T18:30:40.933Z,-81
2018-08-30T18:33:09.236Z,-83
2018-08-30T18:35:37.420Z,-82
2018-08-30T18:38:05.669Z,-82
2018-08-30T18:40:33.870Z,-84
2018-08-30T18:43:02.103Z,-83
2018-08-30T18:45:30.274Z,-85
2018-08-30T18:47:58.456Z,-82
2018-08-30T18:50:26.594Z,-82
2018-08-30T18:52:54.819Z,-73
2018-08-30T18:55:23.078Z,-72
2018-08-30T18:57:51.285Z,-73
2018-08-30T19:00:20.116Z,-73
2018-08-30T19:02:48.382Z,-72
2018-08-30T19:05:16.586Z,-73
2018-08-30T19:07:44.699Z,-75
2018-08-30T19:10:12.918Z,-73
2018-08-30T19:12:41.122Z,-75
2018-08-30T19:15:15.284Z,-74
2018-08-30T19:17:49.370Z,-73
2018-08-30T19:20:17.634Z,-73
2018-08-30T19:22:45.877Z,-73
2018-08-30T19:25:15.422Z,-73
2018-08-30T19:27:45.246Z,-73
2018-08-30T19:30:18.959Z,-74
2018-08-30T19:32:48.102Z,-74
2018-08-30T19:35:22.026Z,-73
2018-08-30T19:37:50.295Z,-72
2018-08-30T19:40:24.558Z,-73
2018-08-30T19:42:52.943Z,-71
2018-08-30T19:45:21.126Z,-72
2018-08-30T19:47:49.481Z,-74
2018-08-30T19:50:18.002Z,-73
2018-08-30T19:52:46.287Z,-74
2018-08-30T19:55:14.641Z,-71
2018-08-30T19:57:42.808Z,-72
2018-08-30T20:00:11.182Z,-72
2018-08-30T20:02:39.414Z,-73
2018-08-30T20:05:07.734Z,-72
2018-08-30T20:07:36.180Z,-74
2018-08-30T20:10:05.277Z,-73
2018-08-30T20:12:33.437Z,-72
2018-08-30T20:15:02.104Z,-70
2018-08-30T20:17:30.294Z,-72
2018-08-30T20:19:58.471Z,-71
2018-08-30T20:22:26.780Z,-71
2018-08-30T20:24:56.006Z,-71
2018-08-30T20:27:25.168Z,-68
2018-08-30T20:29:53.525Z,-72
2018-08-30T20:32:22.142Z,-73
2018-08-30T20:34:50.401Z,-71
2018-08-30T20:37:18.671Z,-72
2018-08-30T20:39:46.883Z,-71
2018-08-30T20:42:15.099Z,-71
2018-08-30T20:44:44.608Z,-72
2018-08-30T20:47:12.791Z,-72
2018-08-30T20:49:40.998Z,-71
2018-08-30T20:52:09.266Z,-72
2018-08-30T20:54:37.910Z,-73
2018-08-30T20:57:06.207Z,-72
2018-08-30T20:59:34.604Z,-72
2018-08-30T21:02:02.933Z,-72
2018-08-30T21:04:31.142Z,-73
2018-08-30T21:06:59.353Z,-72
2018-08-30T21:09:27.563Z,-71
2018-08-30T21:11:55.715Z,-71
2018-08-30T21:14:23.901Z,-73
2018-08-30T21:16:53.989Z,-74
2018-08-30T21:19:22.105Z,-74
2018-08-30T21:21:50.222Z,-73
2018-08-30T21:24:18.429Z,-74
2018-08-30T21:26:46.608Z,-73
2018-08-30T21:29:14.750Z,-71
2018-08-30T21:31:42.982Z,-74
2018-08-30T21:34:11.304Z,-76
2018-08-30T21:36:39.492Z,-72
2018-08-30T21:39:08.732Z,-74
2018-08-30T21:41:36.883Z,-74
2018-08-30T21:44:05.438Z,-73
2018-08-30T21:46:34.782Z,-74
2018-08-30T21:49:03.292Z,-73
2018-08-30T21:51:31.564Z,-73
2018-08-30T21:53:59.854Z,-72
2018-08-30T21:56:28.340Z,-73
2018-08-30T21:58:56.679Z,-74
2018-08-30T22:01:25.000Z,-73
2018-08-30T22:03:53.302Z,-73
2018-08-30T22:06:21.884Z,-73
2018-08-30T22:08:50.034Z,-73
2018-08-30T22:11:18.316Z,-73
2018-08-30T22:13:46.641Z,-73
2018-08-30T22:16:15.000Z,-74
2018-08-30T22:18:43.377Z,-73
2018-08-30T22:21:11.574Z,-74
2018-08-30T22:23:39.682Z,-75
2018-08-30T22:26:07.980Z,-73
2018-08-30T22:28:36.079Z,-74
2018-08-30T22:31:04.551Z,-73
2018-08-30T22:33:32.715Z,-74
2018-08-30T22:36:01.485Z,-73
2018-08-30T22:38:29.620Z,-75
2018-08-30T22:40:57.808Z,-72
2018-08-30T22:43:25.971Z,-73
2018-08-30T22:45:54.274Z,-74
2018-08-30T22:48:23.188Z,-73
2018-08-30T22:50:51.326Z,-72
2018-08-30T22:53:19.581Z,-72
2018-08-30T22:55:47.889Z,-73
2018-08-30T22:58:16.114Z,-73
2018-08-30T23:00:44.263Z,-73
2018-08-30T23:03:12.715Z,-74
2018-08-30T23:05:41.609Z,-74
2018-08-30T23:08:10.413Z,-73
2018-08-30T23:10:38.724Z,-74
2018-08-30T23:13:07.485Z,-74
2018-08-30T23:15:35.748Z,-72
2018-08-30T23:18:04.021Z,-72
2018-08-30T23:20:32.208Z,-73
2018-08-30T23:23:00.636Z,-73
2018-08-30T23:25:28.767Z,-74
2018-08-30T23:27:57.102Z,-73
2018-08-30T23:30:25.629Z,-74
2018-08-30T23:32:53.929Z,-73
2018-08-30T23:35:22.201Z,-73
2018-08-30T23:37:50.557Z,-72
2018-08-30T23:40:18.973Z,-74
2018-08-30T23:42:47.385Z,-73
2018-08-30T23:45:15.652Z,-72
2018-08-30T23:47:43.950Z,-73
2018-08-30T23:50:12.160Z,-73
2018-08-30T23:52:40.519Z,-75
2018-08-30T23:55:08.904Z,-73
2018-08-30T23:58:48.008Z,-72
